TAF AMD LFJL 251024Z 2510/2606 04007KT 7000 OVC007
PROB40
TEMPO 2510/2512 OVC003
TEMPO 2512/2519 OVC015
PROB40
TEMPO 2519/2606 4000 BR BKN003
From batch tds/tafs/production/2023/1/25/h10_m29_tafs.cache.xml
Issued (10 days ago)
Forecasts
2510/2606 4007KT OVC700

---
fcst_time_to: '2023-01-26T06:00:00Z'
sky_condition:
- sky_cover: OVC
  cloud_base_ft_agl: '700'
wind_speed_kt: '7'
fcst_time_from: '2023-01-25T10:00:00Z'
wind_dir_degrees: '40'
visibility_statute_mi: '4.35'

TEMPO 2510/2512 OVC300

---
probability: '40'
fcst_time_to: '2023-01-25T12:00:00Z'
sky_condition:
- sky_cover: OVC
  cloud_base_ft_agl: '300'
fcst_time_from: '2023-01-25T10:00:00Z'
change_indicator: TEMPO

TEMPO 2512/2519 OVC1500

---
fcst_time_to: '2023-01-25T19:00:00Z'
sky_condition:
- sky_cover: OVC
  cloud_base_ft_agl: '1500'
fcst_time_from: '2023-01-25T12:00:00Z'
change_indicator: TEMPO

TEMPO 2519/2606 BKN300

---
wx_string: BR
probability: '40'
fcst_time_to: '2023-01-26T06:00:00Z'
sky_condition:
- sky_cover: BKN
  cloud_base_ft_agl: '300'
fcst_time_from: '2023-01-25T19:00:00Z'
change_indicator: TEMPO
visibility_statute_mi: '2.49'

talk